createdAt,value
2023-05-24T00:00:01.979Z,13.33
2023-05-24T00:40:11.675Z,13.28
2023-05-24T00:46:02.487Z,13.28
2023-05-24T00:59:59.581Z,13.28
2023-05-24T01:16:01.799Z,13.28
2023-05-24T01:31:03.992Z,13.28
2023-05-24T01:46:03.407Z,13.28
2023-05-24T02:00:03.021Z,13.28
2023-05-24T02:16:00.139Z,13.28
2023-05-24T02:31:02.426Z,13.22
2023-05-24T02:45:59.501Z,13.22
2023-05-24T03:00:01.374Z,13.17
2023-05-24T03:16:03.681Z,13.17
2023-05-24T03:31:00.770Z,13.17
2023-05-24T03:46:02.996Z,13.17
2023-05-24T04:00:00.019Z,13.11
2023-05-24T04:16:02.285Z,13.17
2023-05-24T04:31:04.414Z,13.33
2023-05-24T04:46:01.492Z,13.44
2023-05-24T05:00:03.736Z,13.56
2023-05-24T05:16:01.119Z,13.72
2023-05-24T05:31:02.915Z,13.83
2023-05-24T05:46:00.101Z,13.94
2023-05-24T06:00:02.123Z,14
2023-05-24T06:15:59.679Z,14.11
2023-05-24T06:31:01.778Z,14.17
2023-05-24T06:46:04.017Z,14.28
2023-05-24T07:00:01.080Z,14.56
2023-05-24T07:16:03.339Z,14.83
2023-05-24T07:31:00.508Z,15.17
2023-05-24T07:46:02.604Z,15.39
2023-05-24T07:59:59.873Z,15.72
2023-05-24T08:16:02.235Z,15.94
2023-05-24T08:30:59.440Z,16.28
2023-05-24T08:46:01.928Z,16.44
2023-05-24T09:00:03.768Z,16.61
2023-05-24T09:16:01.090Z,16.44
2023-05-24T09:31:06.269Z,16
2023-05-24T09:46:00.069Z,15.56
2023-05-24T10:00:02.040Z,15.44
2023-05-24T10:15:59.369Z,15.06
2023-05-24T10:31:01.716Z,14.94
2023-05-24T10:46:03.815Z,14.83
2023-05-24T11:00:00.767Z,14.56
2023-05-24T11:16:03.148Z,14.44
2023-05-24T11:31:00.310Z,14.78
2023-05-24T11:46:02.553Z,15.33
2023-05-24T11:59:59.360Z,15.78
2023-05-24T12:16:01.826Z,16.44
2023-05-24T12:31:03.917Z,16.5
2023-05-24T12:46:00.947Z,16.33
2023-05-24T13:00:05.757Z,16.28
2023-05-24T13:16:00.480Z,16.61
2023-05-24T13:31:03.073Z,16.61
2023-05-24T13:45:59.910Z,16.33
2023-05-24T14:00:02.061Z,16.17
2023-05-24T14:15:59.421Z,16.11
2023-05-24T14:31:08.525Z,16.22
2023-05-24T14:46:03.858Z,15.94
2023-05-24T15:00:01.018Z,16.28
2023-05-24T15:16:03.236Z,16.22
2023-05-24T15:31:00.519Z,15.83
2023-05-24T15:46:02.607Z,15.56
2023-05-24T15:59:59.897Z,15.33
2023-05-24T16:16:02.444Z,15.17
2023-05-24T16:30:59.579Z,15.33
2023-05-24T16:46:01.753Z,15.33
2023-05-24T17:00:03.668Z,15.28
2023-05-24T17:16:01.140Z,15.17
2023-05-24T17:31:03.337Z,15.11
2023-05-24T17:46:00.326Z,15.11
2023-05-24T18:00:02.202Z,15.11
2023-05-24T18:15:59.781Z,15
2023-05-24T18:31:01.657Z,14.94
2023-05-24T18:46:03.846Z,14.94
2023-05-24T19:00:00.959Z,14.89
2023-05-24T19:16:03.327Z,14.83
2023-05-24T19:31:00.483Z,14.78
2023-05-24T19:46:02.719Z,14.78
2023-05-24T19:59:59.804Z,14.67
2023-05-24T20:16:02.245Z,14.5
2023-05-24T20:30:59.527Z,14.44
2023-05-24T20:46:01.910Z,14.39
2023-05-24T21:00:04.017Z,14.44
2023-05-24T21:16:00.989Z,14.33
2023-05-24T21:31:03.424Z,14.33
2023-05-24T21:46:00.414Z,14.39
2023-05-24T22:00:02.500Z,14.33
2023-05-24T22:15:59.671Z,14.28
2023-05-24T22:31:01.975Z,14.22
2023-05-24T22:46:04.159Z,14.22
2023-05-24T23:00:01.184Z,14.17
2023-05-24T23:16:03.341Z,14.11
2023-05-24T23:31:00.606Z,14.06
2023-05-24T23:46:03.006Z,14
